sensor_id;sensor_type;location;lat;lon;timestamp;P1;durP1;ratioP1;P2;durP2;ratioP2
18102;SDS011;9178;51.120;6.192;2023-07-30T00:02:14;6.53;;;3.80;;
18102;SDS011;9178;51.120;6.192;2023-07-30T00:04:42;8.17;;;3.20;;
18102;SDS011;9178;51.120;6.192;2023-07-30T00:07:09;7.10;;;3.38;;
18102;SDS011;9178;51.120;6.192;2023-07-30T00:09:40;11.52;;;3.50;;
18102;SDS011;9178;51.120;6.192;2023-07-30T00:12:09;10.52;;;3.63;;
18102;SDS011;9178;51.120;6.192;2023-07-30T00:14:36;7.60;;;3.33;;
18102;SDS011;9178;51.120;6.192;2023-07-30T00:17:05;14.13;;;4.25;;
18102;SDS011;9178;51.120;6.192;2023-07-30T00:19:33;10.07;;;3.47;;
18102;SDS011;9178;51.120;6.192;2023-07-30T00:22:00;8.20;;;3.15;;
18102;SDS011;9178;51.120;6.192;2023-07-30T00:24:27;6.63;;;3.23;;
18102;SDS011;9178;51.120;6.192;2023-07-30T00:26:54;7.10;;;3.70;;
18102;SDS011;9178;51.120;6.192;2023-07-30T00:29:24;5.28;;;2.90;;
18102;SDS011;9178;51.120;6.192;2023-07-30T00:31:51;7.20;;;3.03;;
18102;SDS011;9178;51.120;6.192;2023-07-30T00:34:21;6.07;;;2.93;;
18102;SDS011;9178;51.120;6.192;2023-07-30T00:36:48;10.67;;;3.00;;
18102;SDS011;9178;51.120;6.192;2023-07-30T00:39:15;7.53;;;3.30;;
18102;SDS011;9178;51.120;6.192;2023-07-30T00:41:45;7.90;;;3.27;;
18102;SDS011;9178;51.120;6.192;2023-07-30T00:44:12;12.67;;;3.40;;
18102;SDS011;9178;51.120;6.192;2023-07-30T00:46:43;11.90;;;3.40;;
18102;SDS011;9178;51.120;6.192;2023-07-30T00:49:13;7.70;;;4.00;;
18102;SDS011;9178;51.120;6.192;2023-07-30T00:51:41;5.13;;;3.07;;
18102;SDS011;9178;51.120;6.192;2023-07-30T00:54:09;10.63;;;3.20;;
18102;SDS011;9178;51.120;6.192;2023-07-30T00:56:42;7.83;;;3.13;;
18102;SDS011;9178;51.120;6.192;2023-07-30T00:59:16;7.90;;;3.53;;
18102;SDS011;9178;51.120;6.192;2023-07-30T01:01:49;12.97;;;3.30;;
18102;SDS011;9178;51.120;6.192;2023-07-30T01:04:18;7.45;;;3.15;;
18102;SDS011;9178;51.120;6.192;2023-07-30T01:06:45;12.40;;;3.93;;
18102;SDS011;9178;51.120;6.192;2023-07-30T01:09:16;4.63;;;3.27;;
18102;SDS011;9178;51.120;6.192;2023-07-30T01:11:43;5.97;;;2.83;;
18102;SDS011;9178;51.120;6.192;2023-07-30T01:14:13;8.80;;;3.30;;
18102;SDS011;9178;51.120;6.192;2023-07-30T01:16:41;11.32;;;3.55;;
18102;SDS011;9178;51.120;6.192;2023-07-30T01:19:09;9.10;;;3.00;;
18102;SDS011;9178;51.120;6.192;2023-07-30T01:21:38;4.70;;;2.63;;
18102;SDS011;9178;51.120;6.192;2023-07-30T01:24:05;8.10;;;2.80;;
18102;SDS011;9178;51.120;6.192;2023-07-30T01:26:34;6.20;;;2.70;;
18102;SDS011;9178;51.120;6.192;2023-07-30T01:29:06;10.87;;;3.60;;
18102;SDS011;9178;51.120;6.192;2023-07-30T01:31:40;8.13;;;2.90;;
18102;SDS011;9178;51.120;6.192;2023-07-30T01:34:09;5.40;;;3.10;;
18102;SDS011;9178;51.120;6.192;2023-07-30T01:36:39;9.07;;;3.53;;
18102;SDS011;9178;51.120;6.192;2023-07-30T01:39:06;12.47;;;3.57;;
18102;SDS011;9178;51.120;6.192;2023-07-30T01:41:35;11.33;;;3.50;;
18102;SDS011;9178;51.120;6.192;2023-07-30T01:44:03;6.80;;;3.10;;
18102;SDS011;9178;51.120;6.192;2023-07-30T01:46:30;8.87;;;3.17;;
18102;SDS011;9178;51.120;6.192;2023-07-30T01:48:57;9.97;;;3.30;;
18102;SDS011;9178;51.120;6.192;2023-07-30T01:51:24;9.53;;;3.67;;
18102;SDS011;9178;51.120;6.192;2023-07-30T01:53:53;9.43;;;3.40;;
18102;SDS011;9178;51.120;6.192;2023-07-30T01:56:21;5.93;;;2.87;;
18102;SDS011;9178;51.120;6.192;2023-07-30T01:58:48;7.50;;;2.92;;
18102;SDS011;9178;51.120;6.192;2023-07-30T02:01:15;12.03;;;4.20;;
18102;SDS011;9178;51.120;6.192;2023-07-30T02:03:43;7.30;;;3.50;;
18102;SDS011;9178;51.120;6.192;2023-07-30T02:06:10;12.53;;;3.63;;
18102;SDS011;9178;51.120;6.192;2023-07-30T02:08:37;8.10;;;3.33;;
18102;SDS011;9178;51.120;6.192;2023-07-30T02:11:06;7.50;;;3.10;;
18102;SDS011;9178;51.120;6.192;2023-07-30T02:13:33;6.37;;;3.03;;
18102;SDS011;9178;51.120;6.192;2023-07-30T02:16:00;7.43;;;3.60;;
18102;SDS011;9178;51.120;6.192;2023-07-30T02:18:27;8.97;;;3.40;;
18102;SDS011;9178;51.120;6.192;2023-07-30T02:20:56;8.67;;;3.30;;
18102;SDS011;9178;51.120;6.192;2023-07-30T02:23:23;7.83;;;3.60;;
18102;SDS011;9178;51.120;6.192;2023-07-30T02:25:50;11.00;;;3.50;;
18102;SDS011;9178;51.120;6.192;2023-07-30T02:28:19;11.13;;;3.40;;
18102;SDS011;9178;51.120;6.192;2023-07-30T02:30:46;10.27;;;3.60;;
18102;SDS011;9178;51.120;6.192;2023-07-30T02:33:16;13.07;;;3.50;;
18102;SDS011;9178;51.120;6.192;2023-07-30T02:35:45;10.60;;;3.70;;
18102;SDS011;9178;51.120;6.192;2023-07-30T02:38:12;7.10;;;2.97;;
18102;SDS011;9178;51.120;6.192;2023-07-30T02:40:39;9.87;;;3.60;;
18102;SDS011;9178;51.120;6.192;2023-07-30T02:43:06;9.03;;;3.70;;
18102;SDS011;9178;51.120;6.192;2023-07-30T02:45:35;7.33;;;3.73;;
18102;SDS011;9178;51.120;6.192;2023-07-30T02:48:02;7.40;;;3.40;;
18102;SDS011;9178;51.120;6.192;2023-07-30T02:50:29;11.67;;;3.40;;
18102;SDS011;9178;51.120;6.192;2023-07-30T02:52:56;9.17;;;3.40;;
18102;SDS011;9178;51.120;6.192;2023-07-30T02:55:23;12.33;;;3.83;;
18102;SDS011;9178;51.120;6.192;2023-07-30T02:57:50;11.67;;;4.13;;
18102;SDS011;9178;51.120;6.192;2023-07-30T03:00:20;9.50;;;3.83;;
18102;SDS011;9178;51.120;6.192;2023-07-30T03:02:49;10.30;;;3.40;;
18102;SDS011;9178;51.120;6.192;2023-07-30T03:05:17;10.90;;;3.80;;
18102;SDS011;9178;51.120;6.192;2023-07-30T03:07:44;13.93;;;4.30;;
18102;SDS011;9178;51.120;6.192;2023-07-30T03:10:11;13.90;;;4.00;;
18102;SDS011;9178;51.120;6.192;2023-07-30T03:12:39;10.17;;;3.50;;
18102;SDS011;9178;51.120;6.192;2023-07-30T03:15:06;10.67;;;3.60;;
18102;SDS011;9178;51.120;6.192;2023-07-30T03:17:46;9.17;;;3.57;;
18102;SDS011;9178;51.120;6.192;2023-07-30T03:20:15;13.87;;;3.70;;
18102;SDS011;9178;51.120;6.192;2023-07-30T03:22:42;12.50;;;3.83;;
18102;SDS011;9178;51.120;6.192;2023-07-30T03:25:09;11.60;;;3.70;;
18102;SDS011;9178;51.120;6.192;2023-07-30T03:27:39;11.70;;;3.70;;
18102;SDS011;9178;51.120;6.192;2023-07-30T03:30:06;9.27;;;3.40;;
18102;SDS011;9178;51.120;6.192;2023-07-30T03:32:34;10.37;;;3.60;;
18102;SDS011;9178;51.120;6.192;2023-07-30T03:35:01;13.50;;;3.50;;
18102;SDS011;9178;51.120;6.192;2023-07-30T03:37:29;9.90;;;3.47;;
18102;SDS011;9178;51.120;6.192;2023-07-30T03:39:56;8.37;;;3.60;;
18102;SDS011;9178;51.120;6.192;2023-07-30T03:42:23;8.97;;;2.97;;
18102;SDS011;9178;51.120;6.192;2023-07-30T03:44:50;9.90;;;3.17;;
18102;SDS011;9178;51.120;6.192;2023-07-30T03:47:17;10.43;;;3.30;;
18102;SDS011;9178;51.120;6.192;2023-07-30T03:49:44;12.53;;;3.73;;
18102;SDS011;9178;51.120;6.192;2023-07-30T03:52:11;7.10;;;3.20;;
18102;SDS011;9178;51.120;6.192;2023-07-30T03:54:40;11.80;;;3.20;;
18102;SDS011;9178;51.120;6.192;2023-07-30T03:57:07;8.60;;;3.43;;
18102;SDS011;9178;51.120;6.192;2023-07-30T03:59:34;11.43;;;3.10;;
18102;SDS011;9178;51.120;6.192;2023-07-30T04:02:05;8.73;;;3.03;;
18102;SDS011;9178;51.120;6.192;2023-07-30T04:04:32;9.87;;;3.00;;
18102;SDS011;9178;51.120;6.192;2023-07-30T04:06:59;10.27;;;3.03;;
18102;SDS011;9178;51.120;6.192;2023-07-30T04:09:26;9.27;;;3.07;;
18102;SDS011;9178;51.120;6.192;2023-07-30T04:11:57;10.23;;;3.33;;
18102;SDS011;9178;51.120;6.192;2023-07-30T04:14:24;9.50;;;2.73;;
18102;SDS011;9178;51.120;6.192;2023-07-30T04:16:50;9.50;;;2.70;;
18102;SDS011;9178;51.120;6.192;2023-07-30T04:19:17;9.23;;;2.80;;
18102;SDS011;9178;51.120;6.192;2023-07-30T04:21:49;7.87;;;2.30;;
18102;SDS011;9178;51.120;6.192;2023-07-30T04:24:16;7.60;;;2.30;;
18102;SDS011;9178;51.120;6.192;2023-07-30T04:26:43;8.33;;;2.30;;
18102;SDS011;9178;51.120;6.192;2023-07-30T04:29:20;12.47;;;2.57;;
18102;SDS011;9178;51.120;6.192;2023-07-30T04:31:49;6.63;;;2.10;;
18102;SDS011;9178;51.120;6.192;2023-07-30T04:34:17;9.40;;;2.43;;
18102;SDS011;9178;51.120;6.192;2023-07-30T04:36:44;7.47;;;2.35;;
18102;SDS011;9178;51.120;6.192;2023-07-30T04:39:11;5.30;;;2.33;;
18102;SDS011;9178;51.120;6.192;2023-07-30T04:41:38;6.70;;;1.90;;
18102;SDS011;9178;51.120;6.192;2023-07-30T04:44:05;6.23;;;1.70;;
18102;SDS011;9178;51.120;6.192;2023-07-30T04:46:34;9.57;;;1.87;;
18102;SDS011;9178;51.120;6.192;2023-07-30T04:49:01;8.90;;;1.60;;
18102;SDS011;9178;51.120;6.192;2023-07-30T04:51:29;7.70;;;1.97;;
18102;SDS011;9178;51.120;6.192;2023-07-30T04:53:56;5.80;;;1.70;;
18102;SDS011;9178;51.120;6.192;2023-07-30T04:56:23;8.43;;;1.93;;
18102;SDS011;9178;51.120;6.192;2023-07-30T04:58:53;5.87;;;1.93;;
18102;SDS011;9178;51.120;6.192;2023-07-30T05:01:21;3.70;;;1.50;;
18102;SDS011;9178;51.120;6.192;2023-07-30T05:03:50;10.67;;;1.60;;
18102;SDS011;9178;51.120;6.192;2023-07-30T05:06:20;7.90;;;1.63;;
18102;SDS011;9178;51.120;6.192;2023-07-30T05:08:47;9.27;;;1.60;;
18102;SDS011;9178;51.120;6.192;2023-07-30T05:11:14;6.80;;;1.37;;
18102;SDS011;9178;51.120;6.192;2023-07-30T05:13:41;4.87;;;1.63;;
18102;SDS011;9178;51.120;6.192;2023-07-30T05:16:09;7.63;;;1.80;;
18102;SDS011;9178;51.120;6.192;2023-07-30T05:18:36;4.17;;;1.70;;
18102;SDS011;9178;51.120;6.192;2023-07-30T05:21:10;9.17;;;1.40;;
18102;SDS011;9178;51.120;6.192;2023-07-30T05:23:37;4.70;;;1.50;;
18102;SDS011;9178;51.120;6.192;2023-07-30T05:26:04;5.17;;;1.40;;
18102;SDS011;9178;51.120;6.192;2023-07-30T05:28:31;3.70;;;1.37;;
18102;SDS011;9178;51.120;6.192;2023-07-30T05:30:59;6.30;;;1.33;;
18102;SDS011;9178;51.120;6.192;2023-07-30T05:33:29;4.67;;;1.30;;
18102;SDS011;9178;51.120;6.192;2023-07-30T05:35:56;6.00;;;1.53;;
18102;SDS011;9178;51.120;6.192;2023-07-30T05:38:25;3.20;;;1.27;;
18102;SDS011;9178;51.120;6.192;2023-07-30T05:40:52;6.20;;;1.27;;
18102;SDS011;9178;51.120;6.192;2023-07-30T05:43:19;7.17;;;1.70;;
18102;SDS011;9178;51.120;6.192;2023-07-30T05:45:46;4.07;;;1.50;;
18102;SDS011;9178;51.120;6.192;2023-07-30T05:48:13;4.33;;;1.40;;
18102;SDS011;9178;51.120;6.192;2023-07-30T05:50:40;5.50;;;1.40;;
18102;SDS011;9178;51.120;6.192;2023-07-30T05:53:08;5.13;;;1.37;;
18102;SDS011;9178;51.120;6.192;2023-07-30T05:55:36;4.10;;;1.53;;
18102;SDS011;9178;51.120;6.192;2023-07-30T05:58:03;6.60;;;1.60;;
18102;SDS011;9178;51.120;6.192;2023-07-30T06:00:30;4.80;;;1.83;;
18102;SDS011;9178;51.120;6.192;2023-07-30T06:02:58;5.77;;;1.63;;
18102;SDS011;9178;51.120;6.192;2023-07-30T06:05:25;8.77;;;1.63;;
18102;SDS011;9178;51.120;6.192;2023-07-30T06:07:52;5.90;;;2.13;;
18102;SDS011;9178;51.120;6.192;2023-07-30T06:10:19;8.23;;;1.67;;
18102;SDS011;9178;51.120;6.192;2023-07-30T06:12:48;4.97;;;1.50;;
18102;SDS011;9178;51.120;6.192;2023-07-30T06:15:15;5.17;;;1.60;;
18102;SDS011;9178;51.120;6.192;2023-07-30T06:17:42;4.93;;;1.77;;
18102;SDS011;9178;51.120;6.192;2023-07-30T06:20:09;5.05;;;1.75;;
18102;SDS011;9178;51.120;6.192;2023-07-30T06:22:37;3.90;;;1.60;;
18102;SDS011;9178;51.120;6.192;2023-07-30T06:25:04;6.00;;;1.88;;
18102;SDS011;9178;51.120;6.192;2023-07-30T06:27:32;8.13;;;2.20;;
18102;SDS011;9178;51.120;6.192;2023-07-30T06:30:00;6.97;;;1.83;;
18102;SDS011;9178;51.120;6.192;2023-07-30T06:32:31;5.65;;;1.92;;
18102;SDS011;9178;51.120;6.192;2023-07-30T06:34:58;6.30;;;1.75;;
18102;SDS011;9178;51.120;6.192;2023-07-30T06:37:25;6.20;;;1.93;;
18102;SDS011;9178;51.120;6.192;2023-07-30T06:39:52;6.47;;;1.88;;
18102;SDS011;9178;51.120;6.192;2023-07-30T06:42:19;4.13;;;2.15;;
18102;SDS011;9178;51.120;6.192;2023-07-30T06:44:46;5.70;;;1.70;;
18102;SDS011;9178;51.120;6.192;2023-07-30T06:47:15;6.28;;;1.77;;
18102;SDS011;9178;51.120;6.192;2023-07-30T06:49:42;7.63;;;2.03;;
18102;SDS011;9178;51.120;6.192;2023-07-30T06:52:09;6.55;;;2.17;;
18102;SDS011;9178;51.120;6.192;2023-07-30T06:54:36;3.53;;;2.13;;
18102;SDS011;9178;51.120;6.192;2023-07-30T06:57:04;5.20;;;1.67;;
18102;SDS011;9178;51.120;6.192;2023-07-30T06:59:31;6.47;;;1.80;;
18102;SDS011;9178;51.120;6.192;2023-07-30T07:01:59;11.02;;;1.90;;
18102;SDS011;9178;51.120;6.192;2023-07-30T07:04:28;7.82;;;1.88;;
18102;SDS011;9178;51.120;6.192;2023-07-30T07:06:55;6.90;;;1.98;;
18102;SDS011;9178;51.120;6.192;2023-07-30T07:09:23;5.38;;;2.40;;
18102;SDS011;9178;51.120;6.192;2023-07-30T07:11:50;9.40;;;2.35;;
18102;SDS011;9178;51.120;6.192;2023-07-30T07:14:17;8.75;;;2.35;;
18102;SDS011;9178;51.120;6.192;2023-07-30T07:16:44;8.02;;;1.92;;
18102;SDS011;9178;51.120;6.192;2023-07-30T07:19:13;10.05;;;2.20;;
18102;SDS011;9178;51.120;6.192;2023-07-30T07:21:43;7.70;;;2.58;;
18102;SDS011;9178;51.120;6.192;2023-07-30T07:24:10;6.95;;;2.10;;
18102;SDS011;9178;51.120;6.192;2023-07-30T07:26:37;6.75;;;2.05;;
18102;SDS011;9178;51.120;6.192;2023-07-30T07:29:06;11.57;;;2.30;;
18102;SDS011;9178;51.120;6.192;2023-07-30T07:31:35;7.30;;;2.00;;
18102;SDS011;9178;51.120;6.192;2023-07-30T07:34:02;6.22;;;2.35;;
18102;SDS011;9178;51.120;6.192;2023-07-30T07:36:29;9.20;;;2.72;;
18102;SDS011;9178;51.120;6.192;2023-07-30T07:39:02;8.88;;;2.70;;
18102;SDS011;9178;51.120;6.192;2023-07-30T07:41:29;8.68;;;2.15;;
18102;SDS011;9178;51.120;6.192;2023-07-30T07:43:56;12.15;;;3.13;;
18102;SDS011;9178;51.120;6.192;2023-07-30T07:46:23;6.35;;;2.33;;
18102;SDS011;9178;51.120;6.192;2023-07-30T07:48:52;10.13;;;2.65;;
18102;SDS011;9178;51.120;6.192;2023-07-30T07:51:21;7.85;;;1.98;;
18102;SDS011;9178;51.120;6.192;2023-07-30T07:53:48;9.32;;;2.58;;
18102;SDS011;9178;51.120;6.192;2023-07-30T07:56:17;7.88;;;2.65;;
18102;SDS011;9178;51.120;6.192;2023-07-30T07:58:44;9.07;;;2.30;;
18102;SDS011;9178;51.120;6.192;2023-07-30T08:01:11;7.43;;;2.30;;
18102;SDS011;9178;51.120;6.192;2023-07-30T08:03:38;11.32;;;2.67;;
18102;SDS011;9178;51.120;6.192;2023-07-30T08:06:07;7.65;;;2.20;;
18102;SDS011;9178;51.120;6.192;2023-07-30T08:08:34;12.35;;;2.80;;
18102;SDS011;9178;51.120;6.192;2023-07-30T08:11:06;9.23;;;2.20;;
18102;SDS011;9178;51.120;6.192;2023-07-30T08:13:34;7.38;;;2.28;;
18102;SDS011;9178;51.120;6.192;2023-07-30T08:16:02;7.18;;;2.22;;
18102;SDS011;9178;51.120;6.192;2023-07-30T08:18:29;7.75;;;1.98;;
18102;SDS011;9178;51.120;6.192;2023-07-30T08:20:59;9.18;;;2.47;;
18102;SDS011;9178;51.120;6.192;2023-07-30T08:23:26;11.20;;;2.28;;
18102;SDS011;9178;51.120;6.192;2023-07-30T08:25:53;5.80;;;2.03;;
18102;SDS011;9178;51.120;6.192;2023-07-30T08:28:20;14.65;;;2.97;;
18102;SDS011;9178;51.120;6.192;2023-07-30T08:30:50;8.50;;;2.55;;
18102;SDS011;9178;51.120;6.192;2023-07-30T08:33:17;10.48;;;2.85;;
18102;SDS011;9178;51.120;6.192;2023-07-30T08:35:44;11.35;;;2.47;;
18102;SDS011;9178;51.120;6.192;2023-07-30T08:38:11;6.30;;;2.35;;
18102;SDS011;9178;51.120;6.192;2023-07-30T08:40:38;9.18;;;2.28;;
18102;SDS011;9178;51.120;6.192;2023-07-30T08:43:05;7.32;;;2.33;;
18102;SDS011;9178;51.120;6.192;2023-07-30T08:45:32;10.32;;;3.30;;
18102;SDS011;9178;51.120;6.192;2023-07-30T08:48:01;6.50;;;2.00;;
18102;SDS011;9178;51.120;6.192;2023-07-30T08:50:28;8.35;;;2.25;;
18102;SDS011;9178;51.120;6.192;2023-07-30T08:52:59;6.88;;;1.90;;
18102;SDS011;9178;51.120;6.192;2023-07-30T08:55:28;8.80;;;2.38;;
18102;SDS011;9178;51.120;6.192;2023-07-30T08:57:59;9.10;;;2.28;;
18102;SDS011;9178;51.120;6.192;2023-07-30T09:00:30;6.20;;;2.40;;
18102;SDS011;9178;51.120;6.192;2023-07-30T09:03:04;8.43;;;2.00;;
18102;SDS011;9178;51.120;6.192;2023-07-30T09:05:32;5.65;;;2.00;;
18102;SDS011;9178;51.120;6.192;2023-07-30T09:08:02;4.85;;;1.88;;
18102;SDS011;9178;51.120;6.192;2023-07-30T09:10:29;9.23;;;1.88;;
18102;SDS011;9178;51.120;6.192;2023-07-30T09:12:57;10.55;;;2.30;;
18102;SDS011;9178;51.120;6.192;2023-07-30T09:15:31;8.10;;;2.13;;
18102;SDS011;9178;51.120;6.192;2023-07-30T09:18:07;7.50;;;1.70;;
18102;SDS011;9178;51.120;6.192;2023-07-30T09:20:37;7.97;;;2.20;;
18102;SDS011;9178;51.120;6.192;2023-07-30T09:23:05;6.05;;;1.80;;
18102;SDS011;9178;51.120;6.192;2023-07-30T09:25:32;4.68;;;1.25;;
18102;SDS011;9178;51.120;6.192;2023-07-30T09:28:06;5.47;;;1.92;;
18102;SDS011;9178;51.120;6.192;2023-07-30T09:30:48;8.02;;;1.77;;
18102;SDS011;9178;51.120;6.192;2023-07-30T09:33:22;4.45;;;1.70;;
18102;SDS011;9178;51.120;6.192;2023-07-30T09:35:50;8.75;;;2.10;;
18102;SDS011;9178;51.120;6.192;2023-07-30T09:38:18;5.38;;;1.60;;
18102;SDS011;9178;51.120;6.192;2023-07-30T09:40:46;4.82;;;1.92;;
18102;SDS011;9178;51.120;6.192;2023-07-30T09:43:16;4.55;;;1.98;;
18102;SDS011;9178;51.120;6.192;2023-07-30T09:45:44;5.80;;;1.60;;
18102;SDS011;9178;51.120;6.192;2023-07-30T09:48:13;5.38;;;1.80;;
18102;SDS011;9178;51.120;6.192;2023-07-30T09:50:42;6.13;;;1.70;;
18102;SDS011;9178;51.120;6.192;2023-07-30T09:53:17;7.80;;;1.52;;
18102;SDS011;9178;51.120;6.192;2023-07-30T09:55:44;4.13;;;1.40;;
18102;SDS011;9178;51.120;6.192;2023-07-30T09:58:16;7.78;;;1.50;;
18102;SDS011;9178;51.120;6.192;2023-07-30T10:00:43;4.03;;;1.50;;
18102;SDS011;9178;51.120;6.192;2023-07-30T10:03:14;4.28;;;1.58;;
18102;SDS011;9178;51.120;6.192;2023-07-30T10:05:44;8.07;;;2.17;;
18102;SDS011;9178;51.120;6.192;2023-07-30T10:08:17;8.20;;;1.80;;
18102;SDS011;9178;51.120;6.192;2023-07-30T10:11:00;7.57;;;1.90;;
18102;SDS011;9178;51.120;6.192;2023-07-30T10:13:32;5.15;;;1.45;;
18102;SDS011;9178;51.120;6.192;2023-07-30T10:16:08;6.57;;;1.45;;
18102;SDS011;9178;51.120;6.192;2023-07-30T10:18:39;5.28;;;1.23;;
18102;SDS011;9178;51.120;6.192;2023-07-30T10:21:35;8.05;;;1.40;;
18102;SDS011;9178;51.120;6.192;2023-07-30T10:24:32;6.93;;;2.17;;
18102;SDS011;9178;51.120;6.192;2023-07-30T10:27:03;2.85;;;1.38;;
18102;SDS011;9178;51.120;6.192;2023-07-30T10:29:32;8.25;;;1.70;;
18102;SDS011;9178;51.120;6.192;2023-07-30T10:32:03;7.28;;;1.73;;
18102;SDS011;9178;51.120;6.192;2023-07-30T10:34:43;5.43;;;1.50;;
18102;SDS011;9178;51.120;6.192;2023-07-30T10:37:18;5.50;;;1.83;;
18102;SDS011;9178;51.120;6.192;2023-07-30T10:39:51;6.28;;;1.67;;
18102;SDS011;9178;51.120;6.192;2023-07-30T10:42:18;4.65;;;1.50;;
18102;SDS011;9178;51.120;6.192;2023-07-30T10:44:47;5.25;;;1.45;;
18102;SDS011;9178;51.120;6.192;2023-07-30T10:47:15;5.82;;;1.33;;
18102;SDS011;9178;51.120;6.192;2023-07-30T10:49:42;5.43;;;1.77;;
18102;SDS011;9178;51.120;6.192;2023-07-30T10:52:14;7.25;;;1.60;;
18102;SDS011;9178;51.120;6.192;2023-07-30T10:54:43;7.47;;;1.60;;
18102;SDS011;9178;51.120;6.192;2023-07-30T10:57:10;7.90;;;1.73;;
18102;SDS011;9178;51.120;6.192;2023-07-30T10:59:38;4.30;;;1.58;;
18102;SDS011;9178;51.120;6.192;2023-07-30T11:02:05;4.95;;;1.50;;
18102;SDS011;9178;51.120;6.192;2023-07-30T11:04:34;6.15;;;1.60;;
18102;SDS011;9178;51.120;6.192;2023-07-30T11:07:02;4.63;;;1.50;;
18102;SDS011;9178;51.120;6.192;2023-07-30T11:09:29;5.35;;;1.70;;
18102;SDS011;9178;51.120;6.192;2023-07-30T11:11:57;4.80;;;1.38;;
18102;SDS011;9178;51.120;6.192;2023-07-30T11:14:28;3.20;;;1.65;;
18102;SDS011;9178;51.120;6.192;2023-07-30T11:16:56;2.92;;;0.98;;
18102;SDS011;9178;51.120;6.192;2023-07-30T11:19:25;4.78;;;1.42;;
18102;SDS011;9178;51.120;6.192;2023-07-30T11:21:55;3.20;;;1.30;;
18102;SDS011;9178;51.120;6.192;2023-07-30T11:24:23;4.95;;;1.42;;
18102;SDS011;9178;51.120;6.192;2023-07-30T11:27:01;7.25;;;1.60;;
18102;SDS011;9178;51.120;6.192;2023-07-30T11:29:29;3.03;;;0.90;;
18102;SDS011;9178;51.120;6.192;2023-07-30T11:31:57;4.95;;;1.17;;
18102;SDS011;9178;51.120;6.192;2023-07-30T11:34:25;6.38;;;1.25;;
18102;SDS011;9178;51.120;6.192;2023-07-30T11:36:53;3.80;;;1.40;;
18102;SDS011;9178;51.120;6.192;2023-07-30T11:39:21;2.88;;;0.95;;
18102;SDS011;9178;51.120;6.192;2023-07-30T11:41:50;3.10;;;0.82;;
18102;SDS011;9178;51.120;6.192;2023-07-30T11:44:31;3.58;;;0.98;;
18102;SDS011;9178;51.120;6.192;2023-07-30T11:46:59;4.82;;;0.90;;
18102;SDS011;9178;51.120;6.192;2023-07-30T11:49:29;3.00;;;0.60;;
18102;SDS011;9178;51.120;6.192;2023-07-30T11:52:03;3.45;;;0.90;;
18102;SDS011;9178;51.120;6.192;2023-07-30T11:54:31;8.18;;;1.00;;
18102;SDS011;9178;51.120;6.192;2023-07-30T11:56:58;3.33;;;0.90;;
18102;SDS011;9178;51.120;6.192;2023-07-30T11:59:25;4.00;;;1.00;;
18102;SDS011;9178;51.120;6.192;2023-07-30T12:01:58;2.97;;;1.00;;
18102;SDS011;9178;51.120;6.192;2023-07-30T12:04:29;3.20;;;1.10;;
18102;SDS011;9178;51.120;6.192;2023-07-30T12:06:57;3.60;;;1.13;;
18102;SDS011;9178;51.120;6.192;2023-07-30T12:09:27;4.18;;;1.02;;
18102;SDS011;9178;51.120;6.192;2023-07-30T12:12:00;4.03;;;1.25;;
18102;SDS011;9178;51.120;6.192;2023-07-30T12:14:28;4.57;;;1.85;;
18102;SDS011;9178;51.120;6.192;2023-07-30T12:17:10;3.35;;;1.10;;
18102;SDS011;9178;51.120;6.192;2023-07-30T12:19:38;5.57;;;1.55;;
18102;SDS011;9178;51.120;6.192;2023-07-30T12:22:05;4.50;;;1.38;;
18102;SDS011;9178;51.120;6.192;2023-07-30T12:24:35;4.80;;;1.40;;
18102;SDS011;9178;51.120;6.192;2023-07-30T12:27:02;4.40;;;1.13;;
18102;SDS011;9178;51.120;6.192;2023-07-30T12:29:30;2.10;;;1.10;;
18102;SDS011;9178;51.120;6.192;2023-07-30T12:31:57;2.08;;;0.90;;
18102;SDS011;9178;51.120;6.192;2023-07-30T12:34:26;3.20;;;0.75;;
18102;SDS011;9178;51.120;6.192;2023-07-30T12:36:53;6.70;;;1.55;;
18102;SDS011;9178;51.120;6.192;2023-07-30T12:39:21;4.65;;;1.75;;
18102;SDS011;9178;51.120;6.192;2023-07-30T12:41:48;5.30;;;1.02;;
18102;SDS011;9178;51.120;6.192;2023-07-30T12:44:16;3.13;;;1.17;;
18102;SDS011;9178;51.120;6.192;2023-07-30T12:46:46;5.82;;;0.90;;
18102;SDS011;9178;51.120;6.192;2023-07-30T12:49:13;8.75;;;1.60;;
18102;SDS011;9178;51.120;6.192;2023-07-30T12:51:52;4.05;;;1.00;;
18102;SDS011;9178;51.120;6.192;2023-07-30T12:54:22;6.63;;;1.70;;
18102;SDS011;9178;51.120;6.192;2023-07-30T12:56:49;8.50;;;1.80;;
18102;SDS011;9178;51.120;6.192;2023-07-30T12:59:19;28.73;;;2.50;;
18102;SDS011;9178;51.120;6.192;2023-07-30T13:01:46;9.45;;;2.42;;
18102;SDS011;9178;51.120;6.192;2023-07-30T13:04:13;5.53;;;1.15;;
18102;SDS011;9178;51.120;6.192;2023-07-30T13:06:40;16.05;;;1.98;;
18102;SDS011;9178;51.120;6.192;2023-07-30T13:09:09;5.03;;;1.20;;
18102;SDS011;9178;51.120;6.192;2023-07-30T13:11:36;7.82;;;1.27;;
18102;SDS011;9178;51.120;6.192;2023-07-30T13:14:03;4.72;;;1.10;;
18102;SDS011;9178;51.120;6.192;2023-07-30T13:16:30;5.40;;;1.50;;
18102;SDS011;9178;51.120;6.192;2023-07-30T13:18:57;5.60;;;1.00;;
18102;SDS011;9178;51.120;6.192;2023-07-30T13:21:24;4.80;;;1.17;;
18102;SDS011;9178;51.120;6.192;2023-07-30T13:23:51;7.95;;;1.40;;
18102;SDS011;9178;51.120;6.192;2023-07-30T13:26:23;6.88;;;1.23;;
18102;SDS011;9178;51.120;6.192;2023-07-30T13:28:50;7.43;;;1.42;;
18102;SDS011;9178;51.120;6.192;2023-07-30T13:31:17;2.50;;;1.05;;
18102;SDS011;9178;51.120;6.192;2023-07-30T13:33:44;3.72;;;1.15;;
18102;SDS011;9178;51.120;6.192;2023-07-30T13:36:12;7.80;;;1.20;;
18102;SDS011;9178;51.120;6.192;2023-07-30T13:38:39;4.50;;;1.10;;
18102;SDS011;9178;51.120;6.192;2023-07-30T13:41:08;5.00;;;1.67;;
18102;SDS011;9178;51.120;6.192;2023-07-30T13:43:36;3.22;;;1.13;;
18102;SDS011;9178;51.120;6.192;2023-07-30T13:46:03;4.68;;;1.60;;
18102;SDS011;9178;51.120;6.192;2023-07-30T13:48:34;7.13;;;1.77;;
18102;SDS011;9178;51.120;6.192;2023-07-30T13:51:01;2.33;;;1.10;;
18102;SDS011;9178;51.120;6.192;2023-07-30T13:53:28;8.90;;;1.38;;
18102;SDS011;9178;51.120;6.192;2023-07-30T13:55:59;5.47;;;1.67;;
18102;SDS011;9178;51.120;6.192;2023-07-30T13:58:29;4.00;;;1.17;;
18102;SDS011;9178;51.120;6.192;2023-07-30T14:00:58;5.50;;;1.55;;
18102;SDS011;9178;51.120;6.192;2023-07-30T14:03:25;7.80;;;1.42;;
18102;SDS011;9178;51.120;6.192;2023-07-30T14:05:52;7.25;;;1.35;;
18102;SDS011;9178;51.120;6.192;2023-07-30T14:08:19;2.60;;;1.20;;
18102;SDS011;9178;51.120;6.192;2023-07-30T14:10:46;3.60;;;1.17;;
18102;SDS011;9178;51.120;6.192;2023-07-30T14:13:13;4.78;;;1.10;;
18102;SDS011;9178;51.120;6.192;2023-07-30T14:15:42;5.47;;;1.48;;
18102;SDS011;9178;51.120;6.192;2023-07-30T14:18:11;3.70;;;1.10;;
18102;SDS011;9178;51.120;6.192;2023-07-30T14:20:38;6.07;;;1.50;;
18102;SDS011;9178;51.120;6.192;2023-07-30T14:23:07;3.40;;;1.10;;
18102;SDS011;9178;51.120;6.192;2023-07-30T14:25:42;1.88;;;0.95;;
18102;SDS011;9178;51.120;6.192;2023-07-30T14:28:10;5.63;;;1.50;;
18102;SDS011;9178;51.120;6.192;2023-07-30T14:30:39;4.68;;;1.08;;
18102;SDS011;9178;51.120;6.192;2023-07-30T14:33:10;3.47;;;0.95;;
18102;SDS011;9178;51.120;6.192;2023-07-30T14:35:38;2.97;;;1.35;;
18102;SDS011;9178;51.120;6.192;2023-07-30T14:38:05;4.70;;;1.23;;
18102;SDS011;9178;51.120;6.192;2023-07-30T14:40:33;3.47;;;1.17;;
18102;SDS011;9178;51.120;6.192;2023-07-30T14:43:00;4.10;;;1.30;;
18102;SDS011;9178;51.120;6.192;2023-07-30T14:45:27;6.00;;;1.15;;
18102;SDS011;9178;51.120;6.192;2023-07-30T14:47:57;6.40;;;1.48;;
18102;SDS011;9178;51.120;6.192;2023-07-30T14:50:30;5.00;;;1.15;;
18102;SDS011;9178;51.120;6.192;2023-07-30T14:52:57;4.95;;;1.10;;
18102;SDS011;9178;51.120;6.192;2023-07-30T14:55:24;3.50;;;1.02;;
18102;SDS011;9178;51.120;6.192;2023-07-30T14:57:58;2.65;;;1.27;;
18102;SDS011;9178;51.120;6.192;2023-07-30T15:00:26;3.95;;;1.38;;
18102;SDS011;9178;51.120;6.192;2023-07-30T15:02:53;4.00;;;1.15;;
18102;SDS011;9178;51.120;6.192;2023-07-30T15:05:22;5.28;;;1.20;;
18102;SDS011;9178;51.120;6.192;2023-07-30T15:07:50;2.45;;;1.30;;
18102;SDS011;9178;51.120;6.192;2023-07-30T15:10:17;3.65;;;1.58;;